sensor_id;sensor_type;location;lat;lon;timestamp;P1;durP1;ratioP1;P2;durP2;ratioP2
31091;SDS011;67728;53.122;12.776;2023-11-18T00:00:28;674.63;;;247.63;;
31091;SDS011;67728;53.122;12.776;2023-11-18T00:01:59;665.07;;;240.60;;
31091;SDS011;67728;53.122;12.776;2023-11-18T00:03:30;665.13;;;245.43;;
31091;SDS011;67728;53.122;12.776;2023-11-18T00:05:02;671.40;;;240.23;;
31091;SDS011;67728;53.122;12.776;2023-11-18T00:06:34;667.27;;;251.37;;
31091;SDS011;67728;53.122;12.776;2023-11-18T00:08:05;665.80;;;243.30;;
31091;SDS011;67728;53.122;12.776;2023-11-18T00:09:36;667.93;;;248.27;;
31091;SDS011;67728;53.122;12.776;2023-11-18T00:11:07;673.33;;;234.53;;
31091;SDS011;67728;53.122;12.776;2023-11-18T00:12:41;703.53;;;243.20;;
31091;SDS011;67728;53.122;12.776;2023-11-18T00:14:12;662.13;;;229.63;;
31091;SDS011;67728;53.122;12.776;2023-11-18T00:15:43;659.03;;;226.97;;
31091;SDS011;67728;53.122;12.776;2023-11-18T00:17:16;667.53;;;230.13;;
31091;SDS011;67728;53.122;12.776;2023-11-18T00:18:46;658.60;;;224.00;;
31091;SDS011;67728;53.122;12.776;2023-11-18T00:20:19;659.77;;;219.50;;
31091;SDS011;67728;53.122;12.776;2023-11-18T00:21:50;671.47;;;219.23;;
31091;SDS011;67728;53.122;12.776;2023-11-18T00:23:22;657.30;;;219.50;;
31091;SDS011;67728;53.122;12.776;2023-11-18T00:24:53;662.27;;;216.53;;
31091;SDS011;67728;53.122;12.776;2023-11-18T00:26:25;658.30;;;218.67;;
31091;SDS011;67728;53.122;12.776;2023-11-18T00:27:56;701.93;;;228.40;;
31091;SDS011;67728;53.122;12.776;2023-11-18T00:29:27;659.73;;;220.40;;
31091;SDS011;67728;53.122;12.776;2023-11-18T00:30:59;660.33;;;221.67;;
31091;SDS011;67728;53.122;12.776;2023-11-18T00:32:30;658.10;;;220.40;;
31091;SDS011;67728;53.122;12.776;2023-11-18T00:34:01;656.43;;;213.00;;
31091;SDS011;67728;53.122;12.776;2023-11-18T00:35:34;654.70;;;205.30;;
31091;SDS011;67728;53.122;12.776;2023-11-18T00:37:06;658.97;;;216.63;;
31091;SDS011;67728;53.122;12.776;2023-11-18T00:38:37;660.17;;;216.37;;
31091;SDS011;67728;53.122;12.776;2023-11-18T00:40:09;659.87;;;217.40;;
31091;SDS011;67728;53.122;12.776;2023-11-18T00:41:39;657.00;;;210.13;;
31091;SDS011;67728;53.122;12.776;2023-11-18T00:43:11;657.67;;;213.63;;
31091;SDS011;67728;53.122;12.776;2023-11-18T00:44:42;656.87;;;219.60;;
31091;SDS011;67728;53.122;12.776;2023-11-18T00:46:13;655.77;;;215.27;;
31091;SDS011;67728;53.122;12.776;2023-11-18T00:47:44;655.90;;;210.07;;
31091;SDS011;67728;53.122;12.776;2023-11-18T00:49:16;659.90;;;218.97;;
31091;SDS011;67728;53.122;12.776;2023-11-18T00:50:48;657.13;;;219.23;;
31091;SDS011;67728;53.122;12.776;2023-11-18T00:52:22;658.73;;;214.63;;
31091;SDS011;67728;53.122;12.776;2023-11-18T00:53:52;657.50;;;216.27;;
31091;SDS011;67728;53.122;12.776;2023-11-18T00:55:25;658.90;;;217.40;;
31091;SDS011;67728;53.122;12.776;2023-11-18T00:56:56;665.30;;;218.20;;
31091;SDS011;67728;53.122;12.776;2023-11-18T00:58:27;667.00;;;220.20;;
31091;SDS011;67728;53.122;12.776;2023-11-18T00:59:59;657.53;;;206.17;;
31091;SDS011;67728;53.122;12.776;2023-11-18T01:01:29;657.57;;;210.43;;
31091;SDS011;67728;53.122;12.776;2023-11-18T01:03:02;685.27;;;216.43;;
31091;SDS011;67728;53.122;12.776;2023-11-18T01:04:33;659.40;;;218.87;;
31091;SDS011;67728;53.122;12.776;2023-11-18T01:06:06;657.73;;;208.57;;
31091;SDS011;67728;53.122;12.776;2023-11-18T01:07:37;660.10;;;221.67;;
31091;SDS011;67728;53.122;12.776;2023-11-18T01:09:08;661.37;;;218.33;;
31091;SDS011;67728;53.122;12.776;2023-11-18T01:10:40;661.50;;;220.30;;
31091;SDS011;67728;53.122;12.776;2023-11-18T01:12:11;665.13;;;215.47;;
31091;SDS011;67728;53.122;12.776;2023-11-18T01:13:43;664.33;;;216.00;;
31091;SDS011;67728;53.122;12.776;2023-11-18T01:15:14;657.53;;;212.23;;
31091;SDS011;67728;53.122;12.776;2023-11-18T01:16:45;660.87;;;214.23;;
31091;SDS011;67728;53.122;12.776;2023-11-18T01:18:16;661.00;;;208.20;;
31091;SDS011;67728;53.122;12.776;2023-11-18T01:19:48;656.83;;;207.33;;
31091;SDS011;67728;53.122;12.776;2023-11-18T01:21:20;656.33;;;205.93;;
31091;SDS011;67728;53.122;12.776;2023-11-18T01:22:53;654.93;;;208.20;;
31091;SDS011;67728;53.122;12.776;2023-11-18T01:24:23;657.43;;;215.90;;
31091;SDS011;67728;53.122;12.776;2023-11-18T01:25:55;660.50;;;221.97;;
31091;SDS011;67728;53.122;12.776;2023-11-18T01:27:27;658.00;;;217.47;;
31091;SDS011;67728;53.122;12.776;2023-11-18T01:28:59;658.50;;;218.20;;
31091;SDS011;67728;53.122;12.776;2023-11-18T01:30:29;656.37;;;215.80;;
31091;SDS011;67728;53.122;12.776;2023-11-18T01:32:01;657.37;;;222.50;;
31091;SDS011;67728;53.122;12.776;2023-11-18T01:33:38;661.40;;;225.10;;
31091;SDS011;67728;53.122;12.776;2023-11-18T01:35:11;659.70;;;222.27;;
31091;SDS011;67728;53.122;12.776;2023-11-18T01:36:43;661.30;;;220.63;;
31091;SDS011;67728;53.122;12.776;2023-11-18T01:38:15;688.83;;;216.93;;
31091;SDS011;67728;53.122;12.776;2023-11-18T01:39:46;660.97;;;223.80;;
31091;SDS011;67728;53.122;12.776;2023-11-18T01:41:18;658.33;;;216.57;;
31091;SDS011;67728;53.122;12.776;2023-11-18T01:42:49;656.77;;;213.60;;
31091;SDS011;67728;53.122;12.776;2023-11-18T01:44:21;655.90;;;212.53;;
31091;SDS011;67728;53.122;12.776;2023-11-18T01:45:54;654.60;;;210.77;;
31091;SDS011;67728;53.122;12.776;2023-11-18T01:47:26;657.73;;;222.10;;
31091;SDS011;67728;53.122;12.776;2023-11-18T01:48:57;657.20;;;212.93;;
31091;SDS011;67728;53.122;12.776;2023-11-18T01:50:29;663.83;;;218.47;;
31091;SDS011;67728;53.122;12.776;2023-11-18T01:52:02;663.30;;;223.07;;
31091;SDS011;67728;53.122;12.776;2023-11-18T01:53:34;661.17;;;211.53;;
31091;SDS011;67728;53.122;12.776;2023-11-18T01:55:07;662.23;;;220.50;;
31091;SDS011;67728;53.122;12.776;2023-11-18T01:56:41;660.70;;;219.03;;
31091;SDS011;67728;53.122;12.776;2023-11-18T01:58:13;690.63;;;217.97;;
31091;SDS011;67728;53.122;12.776;2023-11-18T01:59:49;659.63;;;211.43;;
31091;SDS011;67728;53.122;12.776;2023-11-18T02:01:20;659.90;;;223.50;;
31091;SDS011;67728;53.122;12.776;2023-11-18T02:02:52;662.17;;;225.67;;
31091;SDS011;67728;53.122;12.776;2023-11-18T02:04:22;658.90;;;217.70;;
31091;SDS011;67728;53.122;12.776;2023-11-18T02:05:54;663.13;;;215.97;;
31091;SDS011;67728;53.122;12.776;2023-11-18T02:07:27;656.70;;;209.13;;
31091;SDS011;67728;53.122;12.776;2023-11-18T02:08:59;661.60;;;221.07;;
31091;SDS011;67728;53.122;12.776;2023-11-18T02:10:30;659.03;;;219.90;;
31091;SDS011;67728;53.122;12.776;2023-11-18T02:12:06;658.33;;;218.73;;
31091;SDS011;67728;53.122;12.776;2023-11-18T02:13:44;658.33;;;215.20;;
31091;SDS011;67728;53.122;12.776;2023-11-18T02:15:19;661.43;;;224.80;;
31091;SDS011;67728;53.122;12.776;2023-11-18T02:16:51;661.70;;;214.53;;
31091;SDS011;67728;53.122;12.776;2023-11-18T02:18:28;691.67;;;222.37;;
31091;SDS011;67728;53.122;12.776;2023-11-18T02:19:59;656.83;;;209.20;;
31091;SDS011;67728;53.122;12.776;2023-11-18T02:21:36;658.43;;;210.70;;
31091;SDS011;67728;53.122;12.776;2023-11-18T02:23:09;672.23;;;208.27;;
31091;SDS011;67728;53.122;12.776;2023-11-18T02:24:41;656.53;;;210.07;;
31091;SDS011;67728;53.122;12.776;2023-11-18T02:26:16;657.87;;;212.77;;
31091;SDS011;67728;53.122;12.776;2023-11-18T02:27:52;657.23;;;205.57;;
31091;SDS011;67728;53.122;12.776;2023-11-18T02:29:24;659.47;;;216.60;;
31091;SDS011;67728;53.122;12.776;2023-11-18T02:30:56;658.10;;;216.60;;
31091;SDS011;67728;53.122;12.776;2023-11-18T02:32:36;660.57;;;217.00;;
31091;SDS011;67728;53.122;12.776;2023-11-18T02:34:16;658.97;;;212.60;;
31091;SDS011;67728;53.122;12.776;2023-11-18T02:35:54;658.13;;;210.37;;
31091;SDS011;67728;53.122;12.776;2023-11-18T02:37:29;659.40;;;218.47;;
31091;SDS011;67728;53.122;12.776;2023-11-18T02:39:04;659.50;;;216.30;;
31091;SDS011;67728;53.122;12.776;2023-11-18T02:40:37;658.67;;;208.67;;
31091;SDS011;67728;53.122;12.776;2023-11-18T02:42:15;659.17;;;214.00;;
31091;SDS011;67728;53.122;12.776;2023-11-18T02:43:46;657.10;;;209.67;;
31091;SDS011;67728;53.122;12.776;2023-11-18T02:45:20;653.67;;;198.60;;
31091;SDS011;67728;53.122;12.776;2023-11-18T02:46:51;657.40;;;203.83;;
31091;SDS011;67728;53.122;12.776;2023-11-18T02:48:23;657.40;;;204.17;;
31091;SDS011;67728;53.122;12.776;2023-11-18T02:49:54;659.40;;;204.10;;
31091;SDS011;67728;53.122;12.776;2023-11-18T02:51:26;655.83;;;197.77;;
31091;SDS011;67728;53.122;12.776;2023-11-18T02:52:57;657.10;;;203.33;;
31091;SDS011;67728;53.122;12.776;2023-11-18T02:54:29;663.47;;;208.53;;
31091;SDS011;67728;53.122;12.776;2023-11-18T02:56:00;660.03;;;206.57;;
31091;SDS011;67728;53.122;12.776;2023-11-18T02:57:34;658.70;;;210.27;;
31091;SDS011;67728;53.122;12.776;2023-11-18T02:59:05;662.57;;;208.87;;
31091;SDS011;67728;53.122;12.776;2023-11-18T03:00:37;661.00;;;218.10;;
31091;SDS011;67728;53.122;12.776;2023-11-18T03:02:08;656.73;;;207.67;;
31091;SDS011;67728;53.122;12.776;2023-11-18T03:03:40;695.40;;;212.10;;
31091;SDS011;67728;53.122;12.776;2023-11-18T03:05:12;658.27;;;219.37;;
31091;SDS011;67728;53.122;12.776;2023-11-18T03:06:44;661.13;;;217.00;;
31091;SDS011;67728;53.122;12.776;2023-11-18T03:08:15;665.63;;;227.70;;
31091;SDS011;67728;53.122;12.776;2023-11-18T03:09:47;664.53;;;221.13;;
31091;SDS011;67728;53.122;12.776;2023-11-18T03:11:18;662.03;;;216.83;;
31091;SDS011;67728;53.122;12.776;2023-11-18T03:12:51;662.70;;;220.87;;
31091;SDS011;67728;53.122;12.776;2023-11-18T03:14:23;662.77;;;222.47;;
31091;SDS011;67728;53.122;12.776;2023-11-18T03:15:54;661.10;;;218.10;;
31091;SDS011;67728;53.122;12.776;2023-11-18T03:17:25;662.07;;;223.97;;
31091;SDS011;67728;53.122;12.776;2023-11-18T03:18:58;662.00;;;218.27;;
31091;SDS011;67728;53.122;12.776;2023-11-18T03:20:29;661.30;;;212.60;;
31091;SDS011;67728;53.122;12.776;2023-11-18T03:22:00;666.30;;;224.17;;
31091;SDS011;67728;53.122;12.776;2023-11-18T03:23:31;671.43;;;222.20;;
31091;SDS011;67728;53.122;12.776;2023-11-18T03:25:03;662.40;;;215.00;;
31091;SDS011;67728;53.122;12.776;2023-11-18T03:26:37;662.90;;;212.83;;
31091;SDS011;67728;53.122;12.776;2023-11-18T03:28:09;664.40;;;219.77;;
31091;SDS011;67728;53.122;12.776;2023-11-18T03:29:41;661.60;;;218.33;;
31091;SDS011;67728;53.122;12.776;2023-11-18T03:31:16;664.87;;;218.20;;
31091;SDS011;67728;53.122;12.776;2023-11-18T03:32:47;661.90;;;214.47;;
31091;SDS011;67728;53.122;12.776;2023-11-18T03:34:18;662.43;;;217.50;;
31091;SDS011;67728;53.122;12.776;2023-11-18T03:35:50;668.07;;;224.60;;
31091;SDS011;67728;53.122;12.776;2023-11-18T03:37:21;665.73;;;225.10;;
31091;SDS011;67728;53.122;12.776;2023-11-18T03:38:53;697.07;;;224.93;;
31091;SDS011;67728;53.122;12.776;2023-11-18T03:40:24;667.23;;;225.70;;
31091;SDS011;67728;53.122;12.776;2023-11-18T03:41:56;672.90;;;224.40;;
31091;SDS011;67728;53.122;12.776;2023-11-18T03:43:28;664.23;;;215.73;;
31091;SDS011;67728;53.122;12.776;2023-11-18T03:45:00;663.07;;;218.17;;
31091;SDS011;67728;53.122;12.776;2023-11-18T03:46:30;663.70;;;218.80;;
31091;SDS011;67728;53.122;12.776;2023-11-18T03:48:04;676.67;;;211.73;;
31091;SDS011;67728;53.122;12.776;2023-11-18T03:49:36;661.53;;;214.87;;
31091;SDS011;67728;53.122;12.776;2023-11-18T03:51:07;677.43;;;218.90;;
31091;SDS011;67728;53.122;12.776;2023-11-18T03:52:39;663.27;;;217.07;;
31091;SDS011;67728;53.122;12.776;2023-11-18T03:54:10;665.10;;;219.00;;
31091;SDS011;67728;53.122;12.776;2023-11-18T03:55:42;662.00;;;217.07;;
31091;SDS011;67728;53.122;12.776;2023-11-18T03:57:13;663.33;;;216.17;;
31091;SDS011;67728;53.122;12.776;2023-11-18T03:58:46;663.60;;;223.33;;
31091;SDS011;67728;53.122;12.776;2023-11-18T04:00:18;663.40;;;212.73;;
31091;SDS011;67728;53.122;12.776;2023-11-18T04:01:50;669.93;;;216.53;;
31091;SDS011;67728;53.122;12.776;2023-11-18T04:03:21;664.27;;;223.00;;
31091;SDS011;67728;53.122;12.776;2023-11-18T04:04:52;667.93;;;222.10;;
31091;SDS011;67728;53.122;12.776;2023-11-18T04:06:23;662.10;;;222.20;;
31091;SDS011;67728;53.122;12.776;2023-11-18T04:07:55;664.33;;;219.63;;
31091;SDS011;67728;53.122;12.776;2023-11-18T04:09:26;662.03;;;215.33;;
31091;SDS011;67728;53.122;12.776;2023-11-18T04:10:58;664.37;;;221.07;;
31091;SDS011;67728;53.122;12.776;2023-11-18T04:12:29;665.00;;;222.70;;
31091;SDS011;67728;53.122;12.776;2023-11-18T04:14:02;701.17;;;225.07;;
31091;SDS011;67728;53.122;12.776;2023-11-18T04:15:33;664.10;;;220.50;;
31091;SDS011;67728;53.122;12.776;2023-11-18T04:17:05;663.57;;;217.73;;
31091;SDS011;67728;53.122;12.776;2023-11-18T04:18:36;662.73;;;218.47;;
31091;SDS011;67728;53.122;12.776;2023-11-18T04:20:08;661.20;;;216.87;;
31091;SDS011;67728;53.122;12.776;2023-11-18T04:21:41;658.50;;;213.20;;
31091;SDS011;67728;53.122;12.776;2023-11-18T04:23:13;659.27;;;210.40;;
31091;SDS011;67728;53.122;12.776;2023-11-18T04:24:44;659.37;;;214.63;;
31091;SDS011;67728;53.122;12.776;2023-11-18T04:26:16;658.97;;;209.43;;
31091;SDS011;67728;53.122;12.776;2023-11-18T04:27:46;660.10;;;214.13;;
31091;SDS011;67728;53.122;12.776;2023-11-18T04:29:19;660.27;;;215.07;;
31091;SDS011;67728;53.122;12.776;2023-11-18T04:30:51;660.77;;;213.00;;
31091;SDS011;67728;53.122;12.776;2023-11-18T04:32:23;666.63;;;210.60;;
31091;SDS011;67728;53.122;12.776;2023-11-18T04:33:53;658.77;;;210.87;;
31091;SDS011;67728;53.122;12.776;2023-11-18T04:35:26;657.87;;;210.47;;
31091;SDS011;67728;53.122;12.776;2023-11-18T04:36:56;659.80;;;209.10;;
31091;SDS011;67728;53.122;12.776;2023-11-18T04:38:28;656.20;;;208.60;;
31091;SDS011;67728;53.122;12.776;2023-11-18T04:39:58;655.03;;;201.90;;
31091;SDS011;67728;53.122;12.776;2023-11-18T04:41:30;660.00;;;210.53;;
31091;SDS011;67728;53.122;12.776;2023-11-18T04:43:01;655.30;;;203.27;;
31091;SDS011;67728;53.122;12.776;2023-11-18T04:44:34;656.17;;;201.10;;
31091;SDS011;67728;53.122;12.776;2023-11-18T04:46:05;656.50;;;208.47;;
31091;SDS011;67728;53.122;12.776;2023-11-18T04:47:37;656.20;;;207.60;;
31091;SDS011;67728;53.122;12.776;2023-11-18T04:49:08;685.50;;;198.77;;
31091;SDS011;67728;53.122;12.776;2023-11-18T04:50:40;656.33;;;206.13;;
31091;SDS011;67728;53.122;12.776;2023-11-18T04:52:11;662.97;;;203.33;;
31091;SDS011;67728;53.122;12.776;2023-11-18T04:53:43;654.57;;;207.00;;
31091;SDS011;67728;53.122;12.776;2023-11-18T04:55:15;655.07;;;202.80;;
31091;SDS011;67728;53.122;12.776;2023-11-18T04:56:46;663.77;;;210.17;;
31091;SDS011;67728;53.122;12.776;2023-11-18T04:58:17;659.10;;;213.10;;
31091;SDS011;67728;53.122;12.776;2023-11-18T04:59:50;658.47;;;208.17;;
31091;SDS011;67728;53.122;12.776;2023-11-18T05:01:21;654.23;;;199.07;;
31091;SDS011;67728;53.122;12.776;2023-11-18T05:02:53;653.80;;;194.97;;
31091;SDS011;67728;53.122;12.776;2023-11-18T05:04:24;657.70;;;203.90;;
31091;SDS011;67728;53.122;12.776;2023-11-18T05:05:56;673.40;;;209.27;;
31091;SDS011;67728;53.122;12.776;2023-11-18T05:07:26;656.87;;;197.40;;
31091;SDS011;67728;53.122;12.776;2023-11-18T05:08:59;655.10;;;200.17;;
31091;SDS011;67728;53.122;12.776;2023-11-18T05:10:30;662.27;;;204.23;;
31091;SDS011;67728;53.122;12.776;2023-11-18T05:12:01;658.63;;;207.17;;
31091;SDS011;67728;53.122;12.776;2023-11-18T05:13:32;657.73;;;202.03;;
31091;SDS011;67728;53.122;12.776;2023-11-18T05:15:06;655.53;;;200.33;;
31091;SDS011;67728;53.122;12.776;2023-11-18T05:16:37;655.97;;;199.80;;
31091;SDS011;67728;53.122;12.776;2023-11-18T05:18:10;652.57;;;191.10;;
31091;SDS011;67728;53.122;12.776;2023-11-18T05:19:43;656.07;;;198.23;;
31091;SDS011;67728;53.122;12.776;2023-11-18T05:21:15;654.93;;;197.17;;
31091;SDS011;67728;53.122;12.776;2023-11-18T05:22:46;655.30;;;199.27;;
31091;SDS011;67728;53.122;12.776;2023-11-18T05:24:17;691.77;;;198.03;;
31091;SDS011;67728;53.122;12.776;2023-11-18T05:25:48;656.30;;;200.07;;
31091;SDS011;67728;53.122;12.776;2023-11-18T05:27:20;656.90;;;196.33;;
31091;SDS011;67728;53.122;12.776;2023-11-18T05:28:51;654.47;;;198.43;;
31091;SDS011;67728;53.122;12.776;2023-11-18T05:30:23;656.27;;;194.00;;
31091;SDS011;67728;53.122;12.776;2023-11-18T05:31:55;661.83;;;193.13;;
31091;SDS011;67728;53.122;12.776;2023-11-18T05:33:27;656.60;;;199.17;;
31091;SDS011;67728;53.122;12.776;2023-11-18T05:34:58;656.13;;;191.87;;
31091;SDS011;67728;53.122;12.776;2023-11-18T05:36:30;662.03;;;198.10;;
31091;SDS011;67728;53.122;12.776;2023-11-18T05:38:07;656.70;;;194.83;;
31091;SDS011;67728;53.122;12.776;2023-11-18T05:39:38;654.77;;;193.97;;
31091;SDS011;67728;53.122;12.776;2023-11-18T05:41:13;652.97;;;189.93;;
31091;SDS011;67728;53.122;12.776;2023-11-18T05:42:53;655.70;;;197.20;;
31091;SDS011;67728;53.122;12.776;2023-11-18T05:44:25;671.20;;;192.37;;
31091;SDS011;67728;53.122;12.776;2023-11-18T05:46:02;657.13;;;194.27;;
31091;SDS011;67728;53.122;12.776;2023-11-18T05:47:50;670.73;;;191.83;;
31091;SDS011;67728;53.122;12.776;2023-11-18T05:49:20;657.83;;;203.73;;
31091;SDS011;67728;53.122;12.776;2023-11-18T05:50:54;653.43;;;192.47;;
31091;SDS011;67728;53.122;12.776;2023-11-18T05:52:25;656.03;;;200.77;;
31091;SDS011;67728;53.122;12.776;2023-11-18T05:53:57;654.87;;;189.60;;
31091;SDS011;67728;53.122;12.776;2023-11-18T05:55:28;657.13;;;200.03;;
31091;SDS011;67728;53.122;12.776;2023-11-18T05:56:59;657.03;;;197.40;;
31091;SDS011;67728;53.122;12.776;2023-11-18T05:58:30;656.33;;;196.27;;
31091;SDS011;67728;53.122;12.776;2023-11-18T06:00:03;657.80;;;200.13;;
31091;SDS011;67728;53.122;12.776;2023-11-18T06:01:38;655.87;;;196.37;;
31091;SDS011;67728;53.122;12.776;2023-11-18T06:03:08;663.33;;;193.70;;
31091;SDS011;67728;53.122;12.776;2023-11-18T06:04:41;690.70;;;203.60;;
31091;SDS011;67728;53.122;12.776;2023-11-18T06:06:12;657.87;;;202.80;;
31091;SDS011;67728;53.122;12.776;2023-11-18T06:07:46;658.17;;;203.07;;
31091;SDS011;67728;53.122;12.776;2023-11-18T06:09:17;657.23;;;202.40;;
31091;SDS011;67728;53.122;12.776;2023-11-18T06:10:51;656.97;;;198.47;;
31091;SDS011;67728;53.122;12.776;2023-11-18T06:12:26;661.77;;;213.90;;
31091;SDS011;67728;53.122;12.776;2023-11-18T06:13:58;657.40;;;206.90;;
31091;SDS011;67728;53.122;12.776;2023-11-18T06:15:29;655.17;;;202.47;;
31091;SDS011;67728;53.122;12.776;2023-11-18T06:17:01;655.73;;;203.40;;
31091;SDS011;67728;53.122;12.776;2023-11-18T06:18:33;655.03;;;199.73;;
31091;SDS011;67728;53.122;12.776;2023-11-18T06:20:06;663.97;;;203.80;;
31091;SDS011;67728;53.122;12.776;2023-11-18T06:21:40;662.60;;;211.93;;
31091;SDS011;67728;53.122;12.776;2023-11-18T06:23:11;655.27;;;199.87;;
31091;SDS011;67728;53.122;12.776;2023-11-18T06:24:45;690.03;;;215.30;;
31091;SDS011;67728;53.122;12.776;2023-11-18T06:26:17;657.53;;;209.50;;
31091;SDS011;67728;53.122;12.776;2023-11-18T06:27:48;677.03;;;212.10;;
31091;SDS011;67728;53.122;12.776;2023-11-18T06:29:20;657.17;;;210.93;;
31091;SDS011;67728;53.122;12.776;2023-11-18T06:30:50;661.07;;;212.13;;
31091;SDS011;67728;53.122;12.776;2023-11-18T06:32:23;663.37;;;226.57;;
31091;SDS011;67728;53.122;12.776;2023-11-18T06:33:55;661.13;;;219.77;;
31091;SDS011;67728;53.122;12.776;2023-11-18T06:35:27;658.97;;;214.50;;
31091;SDS011;67728;53.122;12.776;2023-11-18T06:36:58;660.47;;;227.80;;
31091;SDS011;67728;53.122;12.776;2023-11-18T06:38:29;659.10;;;215.50;;
31091;SDS011;67728;53.122;12.776;2023-11-18T06:40:00;659.93;;;220.53;;
31091;SDS011;67728;53.122;12.776;2023-11-18T06:41:36;660.13;;;221.43;;
31091;SDS011;67728;53.122;12.776;2023-11-18T06:43:09;683.07;;;230.63;;
31091;SDS011;67728;53.122;12.776;2023-11-18T06:44:41;694.50;;;224.40;;
31091;SDS011;67728;53.122;12.776;2023-11-18T06:46:13;692.37;;;215.97;;
31091;SDS011;67728;53.122;12.776;2023-11-18T06:47:45;659.20;;;211.60;;
31091;SDS011;67728;53.122;12.776;2023-11-18T06:49:19;692.27;;;219.80;;
31091;SDS011;67728;53.122;12.776;2023-11-18T06:50:49;689.27;;;229.80;;
31091;SDS011;67728;53.122;12.776;2023-11-18T06:52:21;693.97;;;222.87;;
31091;SDS011;67728;53.122;12.776;2023-11-18T06:53:53;706.67;;;226.03;;
31091;SDS011;67728;53.122;12.776;2023-11-18T06:55:25;752.07;;;238.77;;
31091;SDS011;67728;53.122;12.776;2023-11-18T06:56:56;681.13;;;235.67;;
31091;SDS011;67728;53.122;12.776;2023-11-18T06:58:28;682.83;;;238.93;;
31091;SDS011;67728;53.122;12.776;2023-11-18T06:59:59;685.60;;;228.73;;
31091;SDS011;67728;53.122;12.776;2023-11-18T07:01:31;696.47;;;249.63;;
31091;SDS011;67728;53.122;12.776;2023-11-18T07:03:03;694.63;;;247.90;;
31091;SDS011;67728;53.122;12.776;2023-11-18T07:04:35;693.87;;;244.83;;
31091;SDS011;67728;53.122;12.776;2023-11-18T07:06:08;704.10;;;249.67;;
31091;SDS011;67728;53.122;12.776;2023-11-18T07:07:41;700.93;;;256.57;;
31091;SDS011;67728;53.122;12.776;2023-11-18T07:09:13;693.83;;;256.03;;
31091;SDS011;67728;53.122;12.776;2023-11-18T07:10:47;701.93;;;255.30;;
31091;SDS011;67728;53.122;12.776;2023-11-18T07:12:19;705.87;;;253.30;;
31091;SDS011;67728;53.122;12.776;2023-11-18T07:13:50;700.40;;;255.80;;
31091;SDS011;67728;53.122;12.776;2023-11-18T07:15:26;698.20;;;262.70;;
31091;SDS011;67728;53.122;12.776;2023-11-18T07:16:58;689.27;;;252.27;;
31091;SDS011;67728;53.122;12.776;2023-11-18T07:18:31;731.20;;;258.77;;
31091;SDS011;67728;53.122;12.776;2023-11-18T07:20:02;751.00;;;339.87;;
31091;SDS011;67728;53.122;12.776;2023-11-18T07:21:35;690.43;;;239.20;;
31091;SDS011;67728;53.122;12.776;2023-11-18T07:23:06;699.30;;;240.80;;
31091;SDS011;67728;53.122;12.776;2023-11-18T07:24:39;694.03;;;238.30;;
31091;SDS011;67728;53.122;12.776;2023-11-18T07:26:09;723.13;;;318.63;;
31091;SDS011;67728;53.122;12.776;2023-11-18T07:27:41;682.43;;;238.50;;
31091;SDS011;67728;53.122;12.776;2023-11-18T07:29:11;678.70;;;246.33;;
31091;SDS011;67728;53.122;12.776;2023-11-18T07:30:43;730.47;;;296.83;;
31091;SDS011;67728;53.122;12.776;2023-11-18T07:32:17;697.03;;;246.13;;
31091;SDS011;67728;53.122;12.776;2023-11-18T07:33:50;700.20;;;242.93;;
31091;SDS011;67728;53.122;12.776;2023-11-18T07:35:22;720.07;;;273.53;;
31091;SDS011;67728;53.122;12.776;2023-11-18T07:36:54;704.97;;;246.27;;
31091;SDS011;67728;53.122;12.776;2023-11-18T07:38:25;722.43;;;233.60;;
31091;SDS011;67728;53.122;12.776;2023-11-18T07:39:57;679.50;;;231.63;;
31091;SDS011;67728;53.122;12.776;2023-11-18T07:41:30;672.43;;;236.70;;
31091;SDS011;67728;53.122;12.776;2023-11-18T07:43:02;712.97;;;287.10;;
31091;SDS011;67728;53.122;12.776;2023-11-18T07:44:33;680.03;;;236.27;;
31091;SDS011;67728;53.122;12.776;2023-11-18T07:46:06;697.87;;;238.33;;
31091;SDS011;67728;53.122;12.776;2023-11-18T07:47:38;675.47;;;222.17;;
31091;SDS011;67728;53.122;12.776;2023-11-18T07:49:11;681.83;;;234.57;;
31091;SDS011;67728;53.122;12.776;2023-11-18T07:50:42;682.70;;;240.30;;
31091;SDS011;67728;53.122;12.776;2023-11-18T07:52:14;697.37;;;242.43;;
31091;SDS011;67728;53.122;12.776;2023-11-18T07:53:47;685.00;;;237.33;;
31091;SDS011;67728;53.122;12.776;2023-11-18T07:55:18;682.23;;;241.43;;
31091;SDS011;67728;53.122;12.776;2023-11-18T07:56:49;735.27;;;235.13;;
31091;SDS011;67728;53.122;12.776;2023-11-18T07:58:21;693.47;;;248.40;;
31091;SDS011;67728;53.122;12.776;2023-11-18T07:59:53;693.87;;;247.07;;
31091;SDS011;67728;53.122;12.776;2023-11-18T08:01:24;690.17;;;245.00;;
31091;SDS011;67728;53.122;12.776;2023-11-18T08:02:56;693.60;;;242.87;;
31091;SDS011;67728;53.122;12.776;2023-11-18T08:04:28;686.23;;;247.27;;
31091;SDS011;67728;53.122;12.776;2023-11-18T08:06:00;693.17;;;241.47;;
31091;SDS011;67728;53.122;12.776;2023-11-18T08:07:33;709.30;;;251.87;;
31091;SDS011;67728;53.122;12.776;2023-11-18T08:09:05;694.57;;;249.43;;
31091;SDS011;67728;53.122;12.776;2023-11-18T08:10:40;690.07;;;251.03;;
31091;SDS011;67728;53.122;12.776;2023-11-18T08:12:13;701.63;;;259.87;;
31091;SDS011;67728;53.122;12.776;2023-11-18T08:13:43;705.40;;;256.83;;
31091;SDS011;67728;53.122;12.776;2023-11-18T08:15:15;691.23;;;249.10;;
31091;SDS011;67728;53.122;12.776;2023-11-18T08:16:47;697.17;;;241.97;;
31091;SDS011;67728;53.122;12.776;2023-11-18T08:18:19;692.53;;;248.63;;
31091;SDS011;67728;53.122;12.776;2023-11-18T08:19:55;680.93;;;256.13;;
31091;SDS011;67728;53.122;12.776;2023-11-18T08:21:26;737.47;;;261.73;;
31091;SDS011;67728;53.122;12.776;2023-11-18T08:22:58;709.57;;;253.43;;
31091;SDS011;67728;53.122;12.776;2023-11-18T08:24:30;699.10;;;253.73;;
31091;SDS011;67728;53.122;12.776;2023-11-18T08:26:01;686.83;;;251.83;;
31091;SDS011;67728;53.122;12.776;2023-11-18T08:27:33;746.93;;;254.00;;
31091;SDS011;67728;53.122;12.776;2023-11-18T08:29:05;681.30;;;260.97;;
31091;SDS011;67728;53.122;12.776;2023-11-18T08:30:38;700.57;;;255.80;;
31091;SDS011;67728;53.122;12.776;2023-11-18T08:32:09;689.10;;;255.20;;
31091;SDS011;67728;53.122;12.776;2023-11-18T08:33:42;750.67;;;266.37;;
31091;SDS011;67728;53.122;12.776;2023-11-18T08:35:14;695.23;;;261.87;;